Time;durP1;ratioP1;P1;durP2;ratioP2;P2;SDS_P1;SDS_P2;PMS_P1;PMS_P2;Temp;Humidity;BMP_temperature;BMP_pressure;BME280_temperature;BME280_humidity;BME280_pressure;Samples;Min_cycle;Max_cycle;Signal;HPM_P1;HPM_P2
2022/04/26 03:38:28;;;;;;;5.47;1.47;;;;;;;12.18;97.90;99394.06;1677258;85;21086;-75
2022/04/26 03:40:58;;;;;;;4.15;1.50;;;;;;;12.18;97.86;99396.80;1677243;85;21051;-69
2022/04/26 03:43:28;;;;;;;3.83;1.50;;;;;;;12.17;97.83;99399.25;1653768;85;21206;-68
2022/04/26 03:45:59;;;;;;;3.67;1.20;;;;;;;12.18;98.03;99402.83;1677044;85;21012;-69
2022/04/26 03:48:30;;;;;;;3.80;1.20;;;;;;;12.23;98.14;99403.81;1728946;81;21059;-70
2022/04/26 03:51:00;;;;;;;5.28;1.20;;;;;;;12.23;98.07;99412.59;1758263;81;21039;-71
2022/04/26 03:53:29;;;;;;;4.15;1.42;;;;;;;12.24;98.07;99423.34;1757995;81;21498;-69
2022/04/26 03:55:59;;;;;;;3.52;1.32;;;;;;;12.26;98.23;99421.20;1742390;82;21036;-71
2022/04/26 03:58:30;;;;;;;2.95;1.20;;;;;;;12.29;98.27;99431.72;1758029;81;21058;-72
2022/04/26 04:01:00;;;;;;;3.62;1.62;;;;;;;12.27;98.19;99431.11;1758050;81;21066;-72
2022/04/26 04:03:31;;;;;;;4.15;1.30;;;;;;;12.25;98.02;99440.12;1742440;82;21657;-70
2022/04/26 04:06:02;;;;;;;3.92;1.20;;;;;;;12.22;97.91;99436.47;1758187;81;21055;-71
2022/04/26 04:08:32;;;;;;;4.20;1.40;;;;;;;12.20;97.93;99441.34;1742234;82;21203;-70
2022/04/26 04:11:03;;;;;;;3.67;1.20;;;;;;;12.20;97.97;99445.47;1758306;81;20988;-69
2022/04/26 04:13:34;;;;;;;3.70;1.30;;;;;;;12.22;98.07;99450.20;1742605;82;21046;-66
2022/04/26 04:16:04;;;;;;;2.42;1.62;;;;;;;12.24;98.20;99441.19;1758128;81;21043;-66
2022/04/26 04:21:25;;;;;;;6.83;1.98;;;;;;;12.33;98.47;99456.27;1742708;81;21436;-67
2022/04/26 04:23:54;;;;;;;4.87;1.80;;;;;;;12.37;98.55;99453.40;1739199;81;21098;-67
2022/04/26 04:26:23;;;;;;;2.92;1.52;;;;;;;12.41;98.69;99457.89;1742309;82;21463;-67
2022/04/26 04:28:55;;;;;;;3.80;1.85;;;;;;;12.44;98.77;99457.96;1758007;80;21455;-68
2022/04/26 04:31:25;;;;;;;2.98;1.60;;;;;;;12.41;98.58;99466.67;1757209;80;21084;-69
2022/04/26 04:33:55;;;;;;;2.85;1.37;;;;;;;12.37;98.45;99465.77;1752540;82;21016;-69
2022/04/26 04:36:26;;;;;;;4.17;1.30;;;;;;;12.33;98.31;99474.66;1752559;81;21051;-68
2022/04/26 04:38:57;;;;;;;4.45;1.47;;;;;;;12.30;98.46;99474.59;1742200;82;21047;-68
2022/04/26 04:41:28;;;;;;;3.70;1.65;;;;;;;12.29;98.52;99470.70;1752734;82;21004;-69
2022/04/26 04:43:57;;;;;;;3.98;1.70;;;;;;;12.29;98.58;99471.55;1752409;82;20984;-68
2022/04/26 04:46:27;;;;;;;3.77;2.05;;;;;;;12.31;98.71;99476.80;1752428;82;21435;-67
2022/04/26 04:48:57;;;;;;;3.05;1.77;;;;;;;12.34;98.97;99473.06;1752499;81;20977;-68
2022/04/26 04:51:29;;;;;;;6.08;2.10;;;;;;;12.41;99.11;99474.38;1681533;85;21055;-67
2022/04/26 04:54:01;;;;;;;4.65;1.85;;;;;;;12.43;99.06;99465.91;1659149;85;21086;-69
2022/04/26 04:56:33;;;;;;;4.60;1.98;;;;;;;12.44;99.12;99471.16;1681420;85;21055;-67
2022/04/26 04:59:03;;;;;;;7.47;2.60;;;;;;;12.47;99.22;99475.36;1681366;85;21074;-67
2022/04/26 05:01:32;;;;;;;3.83;2.50;;;;;;;12.49;99.26;99475.96;1681463;85;21054;-69
2022/04/26 05:04:02;;;;;;;3.67;1.70;;;;;;;12.49;99.16;99476.80;1657795;85;21067;-67
2022/04/26 05:06:33;;;;;;;5.42;2.00;;;;;;;12.51;99.20;99473.81;1681601;85;21457;-69
2022/04/26 05:09:04;;;;;;;6.28;1.77;;;;;;;12.54;99.23;99485.18;1701071;82;21023;-67
2022/04/26 05:11:35;;;;;;;4.03;2.10;;;;;;;12.60;99.38;99487.53;1752288;81;21027;-68
2022/04/26 05:14:05;;;;;;;6.53;2.20;;;;;;;12.65;99.48;99484.92;1752513;81;21090;-68
2022/04/26 05:16:34;;;;;;;4.70;1.70;;;;;;;12.69;99.45;99485.59;1752326;82;21643;-67
2022/04/26 05:19:05;;;;;;;5.65;1.92;;;;;;;12.71;99.37;99492.23;1752386;81;21043;-69
2022/04/26 05:21:34;;;;;;;5.17;2.00;;;;;;;12.71;99.18;99501.85;1752583;82;21412;-68
2022/04/26 05:26:54;;;;;;;4.67;2.20;;;;;;;12.73;98.98;99500.24;1752502;81;21047;-68
2022/04/26 05:29:25;;;;;;;3.47;1.95;;;;;;;12.73;99.00;99507.95;1742149;82;21134;-70
2022/04/26 05:31:55;;;;;;;4.12;2.12;;;;;;;12.73;99.00;99510.70;1759082;80;21485;-69
2022/04/26 05:34:27;;;;;;;6.53;1.85;;;;;;;12.72;98.90;99509.56;1743040;82;21079;-70
2022/04/26 05:36:58;;;;;;;4.20;1.47;;;;;;;12.73;98.86;99509.33;1687316;84;21047;-69
2022/04/26 05:39:28;;;;;;;3.35;1.60;;;;;;;12.72;98.72;99507.65;1686846;84;21083;-70
2022/04/26 05:41:57;;;;;;;3.67;2.10;;;;;;;12.70;98.51;99515.29;1711243;84;21047;-67
2022/04/26 05:44:26;;;;;;;4.30;1.90;;;;;;;12.70;98.55;99526.28;1711042;84;21063;-69
2022/04/26 05:46:56;;;;;;;5.58;1.75;;;;;;;12.69;98.53;99519.95;1711219;84;21062;-68
2022/04/26 05:49:27;;;;;;;2.58;1.60;;;;;;;12.71;98.48;99529.34;1710811;84;21031;-70
2022/04/26 05:51:58;;;;;;;3.90;2.20;;;;;;;12.71;98.38;99529.34;1711144;84;21051;-69
2022/04/26 05:54:31;;;;;;;4.62;1.87;;;;;;;12.68;98.21;99532.02;1710946;84;21040;-69
2022/04/26 05:57:02;;;;;;;4.85;1.60;;;;;;;12.70;98.31;99535.91;1653911;86;21071;-71
2022/04/26 05:59:34;;;;;;;5.12;2.00;;;;;;;12.72;98.28;99536.51;1718523;83;21160;-70
2022/04/26 06:02:06;;;;;;;2.80;1.45;;;;;;;12.72;98.06;99535.13;1718237;83;21075;-69
2022/04/26 06:04:38;;;;;;;5.92;2.08;;;;;;;12.73;97.74;99542.31;1582077;91;21260;-69
2022/04/26 06:07:09;;;;;;;3.83;1.70;;;;;;;12.73;97.66;99538.19;1582313;91;21095;-68
2022/04/26 06:09:40;;;;;;;18.10;6.12;;;;;;;12.78;97.79;99541.07;1582342;91;21113;-70
2022/04/26 06:12:10;;;;;;;6.47;2.30;;;;;;;12.84;97.78;99537.39;1582542;91;21101;-70
2022/04/26 06:14:40;;;;;;;4.65;1.40;;;;;;;12.87;97.55;99538.30;1586531;88;21165;-70
2022/04/26 06:17:11;;;;;;;2.90;1.57;;;;;;;12.95;97.47;99544.00;1633609;88;21098;-71
2022/04/26 06:19:42;;;;;;;5.55;1.72;;;;;;;12.98;97.26;99547.12;1633352;88;21082;-71
2022/04/26 06:22:13;;;;;;;5.83;1.55;;;;;;;13.03;96.93;99551.95;1647738;85;21079;-70
2022/04/26 06:24:44;;;;;;;3.55;1.50;;;;;;;13.06;96.65;99556.14;1665613;85;21106;-71
2022/04/26 06:27:14;;;;;;;3.92;1.40;;;;;;;13.12;96.36;99557.41;1688156;85;21103;-70
2022/04/26 06:29:44;;;;;;;3.52;1.10;;;;;;;13.17;96.25;99565.83;1729076;80;21046;-71
2022/04/26 06:32:13;;;;;;;5.40;1.65;;;;;;;13.26;96.08;99559.45;1742612;82;21534;-71
2022/04/26 06:34:43;;;;;;;4.28;1.90;;;;;;;13.28;95.57;99555.94;1710796;84;21071;-70
2022/04/26 06:37:14;;;;;;;5.10;1.40;;;;;;;13.35;95.52;99562.16;1711226;84;21064;-69
2022/04/26 06:39:46;;;;;;;3.37;1.50;;;;;;;13.44;95.44;99558.00;1627143;87;21591;-69
2022/04/26 06:42:15;;;;;;;2.25;1.07;;;;;;;13.70;95.71;99557.27;1613724;88;21058;-69
2022/04/26 06:44:45;;;;;;;2.72;1.20;;;;;;;14.11;95.13;99554.38;1634993;88;21208;-71
2022/04/26 06:47:15;;;;;;;4.42;1.55;;;;;;;14.47;93.31;99555.21;1634902;88;21486;-70
2022/04/26 06:49:44;;;;;;;4.92;1.40;;;;;;;14.79;91.72;99555.58;1634922;88;21517;-70
2022/04/26 06:52:16;;;;;;;4.28;1.40;;;;;;;15.07;90.42;99556.98;1634885;88;21134;-71
2022/04/26 06:54:47;;;;;;;2.62;1.20;;;;;;;15.27;89.04;99562.58;1634935;88;21517;-70
2022/04/26 06:57:18;;;;;;;1.75;1.27;;;;;;;15.37;87.17;99555.31;1649575;85;21070;-71
2022/04/26 06:59:49;;;;;;;4.75;1.50;;;;;;;15.42;85.29;99554.02;1713379;80;21035;-71
2022/04/26 07:02:20;;;;;;;3.22;1.30;;;;;;;15.43;84.31;99559.83;1779715;80;21077;-70
2022/04/26 07:04:52;;;;;;;1.62;1.10;;;;;;;15.38;81.52;99550.08;1779527;80;21522;-70
2022/04/26 07:07:23;;;;;;;3.33;1.10;;;;;;;15.38;81.50;99552.00;1779663;80;21019;-70
2022/04/26 07:09:56;;;;;;;2.10;0.90;;;;;;;15.41;80.94;99548.20;1779916;80;21082;-70
2022/04/26 07:12:31;;;;;;;3.37;1.30;;;;;;;15.44;79.97;99552.38;1742485;81;21028;-72
2022/04/26 07:15:04;;;;;;;3.47;1.35;;;;;;;15.43;78.85;99550.71;1750596;81;21020;-69
2022/04/26 07:17:40;;;;;;;4.87;1.50;;;;;;;15.38;79.11;99556.98;1770917;81;21007;-68
2022/04/26 07:20:11;;;;;;;4.72;1.30;;;;;;;15.40;78.49;99558.95;1771040;80;21067;-67
2022/04/26 07:22:42;;;;;;;4.50;1.10;;;;;;;15.42;78.33;99558.70;1770922;80;21016;-69
2022/04/26 07:25:13;;;;;;;2.20;1.20;;;;;;;15.42;77.54;99567.81;1771049;80;21435;-66
2022/04/26 07:27:42;;;;;;;4.95;1.20;;;;;;;15.40;76.57;99569.98;1770856;81;21047;-67
2022/04/26 07:30:15;;;;;;;2.70;1.20;;;;;;;15.37;75.64;99567.73;1770827;81;21016;-68
2022/04/26 07:35:33;;;;;;;4.00;1.80;;;;;;;15.47;76.46;99566.52;1694499;84;22119;-70
2022/04/26 07:38:07;;;;;;;3.12;1.17;;;;;;;15.59;76.96;99568.41;1753072;81;21096;-67
2022/04/26 07:40:42;;;;;;;1.67;0.98;;;;;;;15.68;74.88;99575.21;1776160;81;21059;-68
2022/04/26 07:43:12;;;;;;;3.20;1.10;;;;;;;15.75;74.62;99578.09;1776066;81;21047;-67
2022/04/26 07:45:42;;;;;;;4.75;1.20;;;;;;;15.87;74.47;99580.77;1775709;81;21099;-70
2022/04/26 07:48:16;;;;;;;2.08;1.10;;;;;;;16.00;74.09;99582.34;1723293;81;21054;-69
2022/04/26 07:50:47;;;;;;;2.52;1.10;;;;;;;16.06;71.20;99585.47;1744532;81;21047;-69
2022/04/26 07:53:17;;;;;;;5.50;1.50;;;;;;;16.08;71.28;99586.89;1721123;81;21039;-68
2022/04/26 07:55:47;;;;;;;5.60;1.00;;;;;;;16.24;71.54;99585.19;1775834;81;21012;-69
2022/04/26 07:58:18;;;;;;;2.77;1.05;;;;;;;16.43;71.10;99585.76;1775716;80;21019;-69
2022/04/26 08:00:48;;;;;;;3.50;1.20;;;;;;;16.53;70.85;99596.95;1775966;80;21495;-68
2022/04/26 08:03:20;;;;;;;3.92;1.70;;;;;;;16.58;69.68;99601.72;1775957;80;21027;-66
2022/04/26 08:05:52;;;;;;;2.40;1.20;;;;;;;16.48;69.03;99596.89;1775939;81;21031;-69
2022/04/26 08:08:27;;;;;;;1.65;1.10;;;;;;;16.32;69.46;99601.91;1775650;80;21020;-68
2022/04/26 08:11:00;;;;;;;2.70;1.30;;;;;;;16.22;70.25;99601.73;1776271;81;21118;-69
2022/04/26 08:13:33;;;;;;;3.15;1.35;;;;;;;16.11;69.70;99618.72;1728787;82;21049;-71
2022/04/26 08:16:04;;;;;;;5.87;3.72;;;;;;;15.95;69.54;99614.88;1755459;82;21038;-71
2022/04/26 08:18:34;;;;;;;8.73;5.78;;;;;;;15.81;70.31;99618.52;1755427;82;21026;-70
2022/04/26 08:21:14;;;;;;;3.58;1.10;;;;;;;15.76;71.18;99610.70;1740124;82;21054;-69
2022/04/26 08:29:35;;;;;;;2.67;1.30;;;;;;;15.66;72.07;99615.50;1740001;82;21062;-66
2022/04/26 08:32:07;;;;;;;6.40;1.45;;;;;;;15.59;71.04;99618.11;1739767;82;21422;-70
2022/04/26 08:34:38;;;;;;;4.67;1.40;;;;;;;15.52;71.73;99621.83;1740128;82;21078;-65
2022/04/26 08:37:13;;;;;;;3.47;1.37;;;;;;;15.52;72.06;99623.21;1713148;82;21023;-66
2022/04/26 08:39:45;;;;;;;2.65;1.70;;;;;;;15.48;71.83;99623.41;1739978;82;21031;-64
2022/04/26 08:42:17;;;;;;;4.42;1.37;;;;;;;15.46;72.37;99625.59;1739804;82;21094;-70
2022/04/26 08:44:49;;;;;;;4.00;1.80;;;;;;;15.44;72.26;99636.05;1740071;82;21054;-63
2022/04/26 08:52:59;;;;;;;2.10;1.40;;;;;;;15.87;72.58;99631.88;1737091;82;21462;-64
2022/04/26 08:55:32;;;;;;;4.62;2.98;;;;;;;16.08;70.98;99634.42;1737198;82;21027;-66
2022/04/26 08:58:02;;;;;;;4.20;1.52;;;;;;;16.13;70.03;99642.79;1710817;82;21016;-66
2022/04/26 09:00:36;;;;;;;2.65;1.17;;;;;;;16.16;69.76;99644.50;1737265;82;21063;-64
2022/04/26 09:03:11;;;;;;;2.45;1.47;;;;;;;16.24;69.32;99648.77;1711225;82;21039;-66
2022/04/26 09:05:46;;;;;;;4.42;1.50;;;;;;;16.26;68.44;99657.67;1737412;82;21075;-64
2022/04/26 09:08:25;;;;;;;2.50;1.32;;;;;;;16.20;67.89;99655.05;1737249;82;21040;-70
2022/04/26 09:10:56;;;;;;;3.35;1.40;;;;;;;16.11;67.55;99656.86;1737114;82;21043;-69
2022/04/26 09:13:26;;;;;;;3.58;1.30;;;;;;;15.99;66.65;99660.25;1737396;82;21498;-65
2022/04/26 09:15:57;;;;;;;2.72;1.15;;;;;;;15.84;66.48;99660.00;1737245;82;21517;-65
2022/04/26 09:18:30;;;;;;;2.58;1.32;;;;;;;15.71;67.15;99653.42;1688421;82;21445;-66
2022/04/26 09:21:10;;;;;;;3.95;1.25;;;;;;;15.66;67.66;99660.23;1676003;85;21539;-64
2022/04/26 09:23:41;;;;;;;4.17;1.90;;;;;;;15.63;67.53;99663.50;1640971;85;21071;-64
2022/04/26 09:26:12;;;;;;;6.47;1.40;;;;;;;15.60;68.21;99663.41;1676282;85;21476;-65
2022/04/26 09:28:45;;;;;;;2.40;1.30;;;;;;;15.62;67.63;99671.48;1676287;85;21056;-66
2022/04/26 09:31:28;;;;;;;2.55;1.10;;;;;;;15.54;66.82;99669.91;1632350;85;21098;-64
2022/04/26 09:34:04;;;;;;;2.02;1.40;;;;;;;15.44;66.87;99666.41;1676467;85;21106;-67
2022/04/26 09:36:35;;;;;;;5.22;1.95;;;;;;;15.33;67.00;99672.82;1676886;85;21059;-64
2022/04/26 09:39:07;;;;;;;4.85;1.40;;;;;;;15.26;67.50;99669.91;1699144;83;21095;-65
2022/04/26 09:41:38;;;;;;;3.10;0.80;;;;;;;15.24;67.89;99674.30;1725276;82;20987;-67
2022/04/26 09:44:10;;;;;;;3.22;1.00;;;;;;;15.23;67.56;99665.73;1708902;83;21031;-65
2022/04/26 09:46:54;;;;;;;1.75;0.88;;;;;;;15.22;67.96;99665.42;1725411;83;21027;-64
2022/04/26 09:49:25;;;;;;;4.45;1.10;;;;;;;15.23;68.33;99665.73;1725547;82;20992;-64
2022/04/26 09:51:58;;;;;;;3.22;1.40;;;;;;;15.27;68.50;99671.05;1685909;83;21047;-64
2022/04/26 09:54:27;;;;;;;2.33;1.32;;;;;;;15.32;68.55;99669.77;1708794;83;21078;-63
2022/04/26 09:56:58;;;;;;;6.87;2.40;;;;;;;15.38;68.07;99674.30;1708973;83;21094;-64
2022/04/26 09:59:32;;;;;;;4.30;1.05;;;;;;;15.48;68.10;99671.73;1725520;83;21023;-63
2022/04/26 10:02:07;;;;;;;4.53;1.30;;;;;;;15.60;68.16;99673.08;1709396;83;21062;-65
2022/04/26 10:04:38;;;;;;;4.65;1.40;;;;;;;15.75;67.92;99673.38;1725235;83;21078;-62
2022/04/26 10:07:10;;;;;;;2.62;1.22;;;;;;;15.93;67.53;99679.22;1725450;83;21047;-62
2022/04/26 10:09:41;;;;;;;4.03;1.25;;;;;;;16.10;67.01;99674.53;1725266;82;21086;-60
2022/04/26 10:12:11;;;;;;;3.30;1.50;;;;;;;16.24;66.62;99668.66;1725381;83;21039;-63
2022/04/26 10:14:41;;;;;;;5.67;1.42;;;;;;;16.43;66.50;99679.22;1736458;82;21031;-62
2022/04/26 10:17:14;;;;;;;2.67;1.62;;;;;;;16.58;66.19;99677.77;1737222;82;21077;-63
2022/04/26 10:19:45;;;;;;;4.70;1.10;;;;;;;16.69;64.92;99684.61;1726207;82;21475;-63
2022/04/26 10:22:18;;;;;;;5.60;1.40;;;;;;;16.73;63.60;99679.40;1656327;86;21089;-61
2022/04/26 10:25:11;;;;;;;2.02;1.10;;;;;;;16.75;63.36;99679.98;1626518;87;21076;-61
2022/04/26 10:27:41;;;;;;;1.87;1.10;;;;;;;16.75;63.27;99678.05;1648136;87;21049;-61
2022/04/26 10:30:11;;;;;;;2.40;0.93;;;;;;;16.80;63.33;99682.81;1649684;86;21096;-61
2022/04/26 10:32:43;;;;;;;3.85;1.40;;;;;;;16.82;62.66;99685.33;1619860;86;21435;-61
2022/04/26 10:35:29;;;;;;;3.52;1.12;;;;;;;16.81;61.26;99684.49;1661981;86;21055;-61
2022/04/26 10:38:15;;;;;;;5.70;1.37;;;;;;;16.85;61.76;99689.80;1647474;86;21102;-64
2022/04/26 10:41:08;;;;;;;4.35;1.32;;;;;;;16.83;61.59;99693.38;1730769;81;21074;-62
2022/04/26 10:43:41;;;;;;;3.72;1.00;;;;;;;16.89;62.14;99702.58;1672364;84;21039;-61
2022/04/26 10:46:14;;;;;;;4.47;1.17;;;;;;;16.96;62.13;99694.95;1753794;82;21067;-61
2022/04/26 10:48:45;;;;;;;3.85;1.10;;;;;;;17.00;61.50;99697.50;1732390;82;21112;-61
2022/04/26 10:51:36;;;;;;;3.52;1.35;;;;;;;17.02;60.76;99709.16;1725222;82;21068;-62
2022/04/26 10:54:08;;;;;;;3.55;1.60;;;;;;;16.99;60.84;99710.50;1708998;83;21092;-63
2022/04/26 10:56:39;;;;;;;5.53;1.40;;;;;;;16.98;61.07;99707.44;1725230;83;20997;-60
2022/04/26 10:59:13;;;;;;;3.75;1.20;;;;;;;16.98;60.41;99713.53;1649423;87;21050;-62
2022/04/26 11:01:43;;;;;;;2.15;1.10;;;;;;;16.99;61.02;99712.44;1649403;85;21243;-59
2022/04/26 11:04:17;;;;;;;4.03;1.15;;;;;;;16.97;60.64;99718.77;1649267;87;21046;-60
2022/04/26 11:06:47;;;;;;;3.22;1.20;;;;;;;16.92;60.14;99714.55;1649306;87;21077;-60
2022/04/26 11:09:19;;;;;;;4.12;1.10;;;;;;;16.80;60.40;99723.77;1649339;87;21070;-60
2022/04/26 11:12:08;;;;;;;2.80;1.55;;;;;;;16.71;61.88;99723.08;1649397;87;21090;-61
2022/04/26 11:14:43;;;;;;;1.57;1.00;;;;;;;16.59;64.01;99729.23;1649284;87;21474;-59
2022/04/26 11:17:15;;;;;;;3.00;0.88;;;;;;;16.40;63.84;99726.73;1649517;86;21026;-61
2022/04/26 11:19:56;;;;;;;3.17;1.30;;;;;;;16.26;64.69;99732.31;1597160;88;21037;-61
2022/04/26 11:22:27;;;;;;;2.25;0.85;;;;;;;16.16;64.96;99724.66;1596920;90;21091;-59
2022/04/26 11:28:11;;;;;;;3.15;1.15;;;;;;;16.14;64.20;99730.98;1581393;91;21487;-60
2022/04/26 11:30:54;;;;;;;3.92;1.20;;;;;;;16.15;64.10;99727.13;1581471;89;21139;-61
2022/04/26 11:33:24;;;;;;;1.70;0.78;;;;;;;16.14;65.04;99732.36;1582637;90;21681;-61
2022/04/26 11:36:02;;;;;;;2.77;1.00;;;;;;;16.15;64.74;99728.51;1589465;90;21040;-60
2022/04/26 11:38:33;;;;;;;7.95;6.05;;;;;;;16.14;65.96;99730.98;1633471;87;21051;-60
2022/04/26 11:41:03;;;;;;;5.12;2.45;;;;;;;16.14;68.31;99731.52;1648776;87;21112;-61
2022/04/26 11:43:36;;;;;;;3.55;1.60;;;;;;;16.14;69.08;99732.91;1627957;87;21051;-61
2022/04/26 11:46:07;;;;;;;3.00;1.27;;;;;;;16.12;69.42;99737.30;1627564;87;21074;-64
2022/04/26 11:48:39;;;;;;;4.72;1.00;;;;;;;16.09;69.23;99732.81;1658699;82;21118;-60
2022/04/26 11:51:09;;;;;;;2.30;0.98;;;;;;;16.08;69.12;99736.67;1745108;82;21051;-59
2022/04/26 11:53:39;;;;;;;7.15;1.37;;;;;;;16.10;69.87;99728.42;1745114;82;21035;-61
2022/04/26 11:56:15;;;;;;;3.27;1.20;;;;;;;16.09;69.70;99731.44;1709545;84;21067;-63
2022/04/26 11:58:45;;;;;;;3.33;1.10;;;;;;;16.07;69.57;99733.06;1709689;83;21460;-60
2022/04/26 12:01:16;;;;;;;2.60;1.20;;;;;;;16.07;68.76;99737.75;1709769;84;21031;-59
2022/04/26 12:03:54;;;;;;;3.45;1.00;;;;;;;16.01;67.57;99735.45;1709618;84;21091;-60
2022/04/26 12:06:32;;;;;;;3.80;1.10;;;;;;;15.96;66.72;99736.73;1709493;83;21367;-60
2022/04/26 12:09:08;;;;;;;2.85;1.20;;;;;;;15.97;66.21;99737.03;1709710;84;21107;-61
2022/04/26 12:11:40;;;;;;;2.75;1.00;;;;;;;16.04;66.18;99742.41;1682593;84;21031;-63
2022/04/26 12:14:16;;;;;;;5.28;1.00;;;;;;;16.10;65.79;99738.09;1709597;83;21447;-64
2022/04/26 12:16:59;;;;;;;4.00;1.07;;;;;;;16.17;65.61;99741.53;1680658;83;21206;-60
2022/04/26 12:19:37;;;;;;;3.58;1.00;;;;;;;16.25;64.81;99751.88;1708910;84;21060;-62
2022/04/26 12:22:07;;;;;;;1.75;0.93;;;;;;;16.27;63.91;99753.88;1704126;83;21034;-63
2022/04/26 12:24:47;;;;;;;2.58;1.02;;;;;;;16.27;63.88;99751.12;1691542;85;21094;-63
2022/04/26 12:27:19;;;;;;;3.90;1.12;;;;;;;16.30;64.02;99755.59;1691770;85;21043;-62
2022/04/26 12:29:51;;;;;;;1.37;1.17;;;;;;;16.31;64.00;99757.27;1631251;87;21064;-61
2022/04/26 12:32:26;;;;;;;2.70;1.30;;;;;;;16.31;63.91;99753.67;1659023;85;21090;-61
2022/04/26 12:34:57;;;;;;;3.15;1.07;;;;;;;16.31;64.22;99753.67;1664923;83;21478;-62
2022/04/26 12:37:31;;;;;;;1.42;0.93;;;;;;;16.33;64.52;99750.11;1666905;86;21535;-63
2022/04/26 12:40:10;;;;;;;2.77;1.10;;;;;;;16.43;64.58;99757.19;1681607;84;21075;-63
2022/04/26 12:42:42;;;;;;;2.42;1.20;;;;;;;16.52;63.94;99746.00;1697559;84;21520;-61
2022/04/26 12:45:23;;;;;;;2.40;1.30;;;;;;;16.55;63.51;99741.89;1674237;84;21060;-62
2022/04/26 12:51:22;;;;;;;1.92;1.40;;;;;;;16.69;63.83;99748.23;1680906;85;21019;-63
2022/04/26 12:54:06;;;;;;;1.62;1.10;;;;;;;16.73;63.77;99753.55;1670461;85;21472;-65
2022/04/26 12:56:37;;;;;;;2.67;1.22;;;;;;;16.79;63.69;99744.23;1669391;86;21095;-62
2022/04/26 12:59:15;;;;;;;3.08;1.20;;;;;;;16.80;63.52;99747.83;1647377;86;21486;-62
2022/04/26 13:01:46;;;;;;;3.37;1.20;;;;;;;16.78;63.39;99749.47;1669397;86;21076;-61
2022/04/26 13:04:16;;;;;;;1.87;0.90;;;;;;;16.71;63.05;99748.81;1669316;86;21052;-63
2022/04/26 13:06:47;;;;;;;1.60;1.00;;;;;;;16.62;63.28;99755.84;1746150;81;21091;-63
2022/04/26 13:09:20;;;;;;;2.77;1.20;;;;;;;16.46;63.45;99750.61;1701057;84;21053;-64
2022/04/26 13:11:54;;;;;;;3.72;1.40;;;;;;;16.33;64.07;99757.03;1688793;85;21076;-63
2022/04/26 13:14:23;;;;;;;2.25;1.22;;;;;;;16.25;64.95;99761.02;1688647;85;21144;-62
2022/04/26 13:16:56;;;;;;;4.03;1.47;;;;;;;16.18;65.50;99766.70;1686067;85;21231;-64
2022/04/26 13:19:28;;;;;;;3.85;1.50;;;;;;;16.13;66.52;99763.85;1666542;85;21106;-63
2022/04/26 13:21:58;;;;;;;3.30;1.32;;;;;;;16.09;68.04;99766.81;1666186;85;21084;-62
2022/04/26 13:24:30;;;;;;;3.52;1.72;;;;;;;16.01;68.79;99761.70;1634076;88;21031;-64
2022/04/26 13:27:02;;;;;;;4.62;1.55;;;;;;;15.96;69.82;99756.63;1650229;85;21504;-63
2022/04/26 13:29:31;;;;;;;4.50;1.90;;;;;;;15.94;70.95;99752.73;1688628;85;21048;-63
2022/04/26 13:32:02;;;;;;;3.55;1.80;;;;;;;15.94;71.90;99757.42;1688803;85;21108;-65
2022/04/26 13:34:32;;;;;;;3.25;1.75;;;;;;;15.95;72.57;99757.71;1691067;84;21157;-61
2022/04/26 13:37:07;;;;;;;3.33;1.77;;;;;;;15.99;72.44;99756.97;1695967;83;21051;-64
2022/04/26 13:39:39;;;;;;;6.42;3.12;;;;;;;16.05;72.33;99762.04;1699179;83;21623;-62
2022/04/26 13:42:10;;;;;;;4.30;2.08;;;;;;;16.07;72.11;99763.47;1742752;80;20991;-63
2022/04/26 13:44:40;;;;;;;7.25;2.52;;;;;;;16.11;72.35;99766.56;1751079;81;21048;-62
2022/04/26 13:47:10;;;;;;;3.17;1.50;;;;;;;16.14;72.79;99767.45;1774433;81;21063;-63
2022/04/26 13:49:40;;;;;;;3.62;1.40;;;;;;;16.12;70.03;99769.08;1748545;81;21144;-62
2022/04/26 13:52:10;;;;;;;1.95;1.50;;;;;;;16.06;67.75;99765.94;1774411;81;21016;-62
2022/04/26 13:54:41;;;;;;;6.97;2.58;;;;;;;16.05;67.11;99767.56;1774244;81;21075;-62
2022/04/26 13:57:11;;;;;;;2.80;1.50;;;;;;;16.06;66.70;99773.39;1715208;82;21475;-63
2022/04/26 13:59:42;;;;;;;3.00;1.60;;;;;;;16.08;66.53;99776.20;1740244;82;20988;-63
2022/04/26 14:02:13;;;;;;;3.08;1.60;;;;;;;16.09;66.29;99786.16;1740239;82;21483;-63
2022/04/26 14:04:42;;;;;;;2.90;1.17;;;;;;;16.04;65.34;99779.16;1715602;82;21082;-64
2022/04/26 14:07:11;;;;;;;4.37;1.80;;;;;;;15.95;64.95;99799.16;1740753;82;21037;-63
2022/04/26 14:09:42;;;;;;;3.10;1.40;;;;;;;15.83;64.41;99796.45;1740373;82;21042;-64
2022/04/26 14:12:18;;;;;;;1.70;1.30;;;;;;;15.67;64.65;99793.93;1740188;82;21007;-63
2022/04/26 14:23:15;;;;;;;3.85;1.40;;;;;;;15.38;66.73;99810.94;1718942;82;21029;-62
2022/04/26 14:25:46;;;;;;;3.65;1.47;;;;;;;15.39;66.86;99815.38;1740335;82;21518;-64
2022/04/26 14:28:16;;;;;;;2.80;1.40;;;;;;;15.40;67.26;99823.96;1740317;82;21007;-64
2022/04/26 14:30:46;;;;;;;2.30;1.70;;;;;;;15.35;67.52;99818.33;1740601;82;21055;-63
2022/04/26 14:33:15;;;;;;;2.40;1.40;;;;;;;15.28;67.72;99821.77;1740413;82;21019;-63
2022/04/26 14:35:45;;;;;;;1.62;1.20;;;;;;;15.22;68.00;99828.25;1730615;82;21035;-64
2022/04/26 14:38:16;;;;;;;8.05;1.80;;;;;;;15.20;68.85;99831.80;1741439;81;20992;-64
2022/04/26 14:40:46;;;;;;;3.20;1.60;;;;;;;15.16;71.68;99836.96;1739536;80;21059;-63
2022/04/26 14:43:16;;;;;;;6.08;1.90;;;;;;;15.06;73.13;99840.03;1760581;80;21019;-65
2022/04/26 14:45:45;;;;;;;6.15;1.90;;;;;;;14.84;75.63;99847.50;1759083;81;21047;-66
2022/04/26 14:48:17;;;;;;;4.22;1.82;;;;;;;14.55;78.43;99848.42;1769302;80;21424;-66
2022/04/26 14:50:49;;;;;;;3.92;1.70;;;;;;;14.28;81.80;99842.43;1765515;81;21055;-65
2022/04/26 14:53:19;;;;;;;4.83;2.02;;;;;;;14.10;84.55;99850.77;1743141;81;21102;-66
2022/04/26 14:55:52;;;;;;;5.35;2.20;;;;;;;13.91;86.81;99862.36;1741862;81;21084;-65
2022/04/26 14:58:22;;;;;;;6.83;2.50;;;;;;;13.62;88.13;99860.69;1762700;81;21521;-65
2022/04/26 15:00:54;;;;;;;4.95;2.02;;;;;;;13.47;89.89;99868.50;1661312;86;21120;-67
2022/04/26 15:03:25;;;;;;;3.27;1.95;;;;;;;13.45;91.61;99876.14;1639426;85;21057;-66
2022/04/26 15:05:59;;;;;;;4.55;2.37;;;;;;;13.41;92.50;99873.55;1661041;86;21587;-63
2022/04/26 15:11:18;;;;;;;4.40;3.10;;;;;;;13.27;94.25;99883.86;1660942;85;21503;-67
2022/04/26 15:16:41;;;;;;;4.00;3.05;;;;;;;13.10;95.49;99895.65;1684562;84;21202;-65
2022/04/26 15:19:12;;;;;;;4.15;2.83;;;;;;;13.07;96.09;99897.47;1688668;84;21058;-67
2022/04/26 15:21:43;;;;;;;4.65;2.98;;;;;;;13.03;96.40;99905.34;1666141;85;21041;-66
2022/04/26 15:24:14;;;;;;;5.60;3.67;;;;;;;12.97;96.68;99897.42;1688853;84;21125;-66
2022/04/26 15:26:44;;;;;;;5.72;3.95;;;;;;;12.97;97.16;99904.30;1731348;81;21017;-64
2022/04/26 15:29:15;;;;;;;7.22;4.75;;;;;;;12.99;97.70;99904.91;1781913;80;21021;-65
2022/04/26 15:31:47;;;;;;;6.10;4.55;;;;;;;13.03;98.08;99898.99;1754633;80;20995;-64
2022/04/26 15:34:15;;;;;;;8.35;4.85;;;;;;;13.06;98.42;99910.92;1781301;80;20996;-65
2022/04/26 15:36:44;;;;;;;7.60;5.40;;;;;;;13.04;98.32;99911.14;1767505;81;21000;-65
2022/04/26 15:39:13;;;;;;;7.90;5.37;;;;;;;12.97;98.38;99910.33;1767676;81;21076;-64
2022/04/26 15:41:45;;;;;;;9.20;5.20;;;;;;;12.98;98.74;99912.02;1767707;81;21059;-64
2022/04/26 15:44:16;;;;;;;10.20;6.35;;;;;;;13.01;98.93;99917.94;1767541;81;21087;-66
2022/04/26 15:46:48;;;;;;;9.43;5.97;;;;;;;13.03;99.02;99919.09;1746461;81;21055;-64
2022/04/26 15:49:20;;;;;;;11.40;6.28;;;;;;;12.99;98.87;99923.33;1767610;81;21008;-64
2022/04/26 15:51:49;;;;;;;9.85;5.65;;;;;;;12.94;98.76;99929.50;1767297;81;21032;-64
2022/04/26 15:54:19;;;;;;;8.60;5.53;;;;;;;12.88;98.62;99931.77;1745878;81;21032;-64
2022/04/26 15:56:49;;;;;;;7.78;5.05;;;;;;;12.89;98.97;99933.98;1711603;84;21084;-64
2022/04/26 15:59:18;;;;;;;5.90;4.42;;;;;;;12.91;99.20;99940.95;1711623;83;21078;-65
2022/04/26 16:01:49;;;;;;;7.22;4.12;;;;;;;12.92;99.18;99947.29;1712008;83;21660;-66
2022/04/26 16:04:21;;;;;;;6.08;4.20;;;;;;;12.86;98.90;99949.03;1633671;87;21499;-67
2022/04/26 16:06:52;;;;;;;5.75;4.08;;;;;;;12.81;98.64;99952.14;1634206;87;21533;-65
2022/04/26 16:20:37;;;;;;;7.25;5.20;;;;;;;12.66;98.90;99965.67;1650421;87;21097;-64
2022/04/26 16:23:07;;;;;;;8.48;4.72;;;;;;;12.70;99.13;99978.44;1674398;85;21128;-64
2022/04/26 16:25:37;;;;;;;8.38;5.53;;;;;;;12.67;98.78;99976.13;1683062;85;21127;-64